Rhinelander, WI

6:12 PM CDT on September 04, 2015 (GMT -0500)
Rhinelander-Oneida County | | Change Station
CLOSE
Current Station
Airport
Location: Rhinelander,
Elevation: 1624 ft
Nearby Weather Stations

Elev 1624 ft 45.63 °N, 89.48 °W | Updated 19 minutes ago

Clear
Clear
80 °F
Feels Like 82 °F
N
12
Wind Variable Wind from ESE

Today
High -- | Low -- °F
--% Chance of Precip.
Yesterday
High -- | Low -- °F
Precip. -- in
6:22 AM 7:30 PM
Waning Gibbous, 55% visible
Pressure 30.03 in
Visibility 10.0 miles
Clouds Clear
Heat Index 82 °F
Dew Point 64 °F
Humidity 58%
Rainfall 0.00 in
Snow Depth Not available.
UV 1 out of 12
Pollen 9.80 out of 12
Air Quality Not available.
Flu Activity Not available.
METAR KRHI 042253Z AUTO 11010KT 10SM CLR 27/18 A3005 RMK AO2 SLP169 T02670178
Pressure 30.03 in
Visibility 10.0 miles
Clouds Clear
Heat Index 82 °F
Dew Point 64 °F
Humidity 58%
Rainfall 0.00 in
Snow Depth Not available.
UV 1 out of 12
Pollen 9.80 out of 12
Air Quality Not available.
Flu Activity Not available.
METAR KRHI 042253Z AUTO 11010KT 10SM CLR 27/18 A3005 RMK AO2 SLP169 T02670178

10-Day Weather Forecast

×

Almanac

Astronomy

Sep. 04, 2015 Rise Set
Actual Time
Civil Twilight
Nautical Twilight
Astronomical Twilight
Moon
Length of Visible Light
Length of Day
Tomorrow will be .
, % of the Moon is Illuminated

Today's Extremes

State Highs State Lows

Community

WunderPhotos

Upload Photos

1,852,331 photos uploaded!

WunderBlogs® & News

Nearby

Air Quality

  Air Quality AQ Index Pollutant
Not available.

Snow Depth

Station Depth Elevation

Earthquake Activity

City Distance Mag. Time & Date
Minimum magnitude displayed is 2.5.

Coastal Water Temperatures

Place Temperature

Stations

Nearby Weather Stations

Station Location Temp. Windchill Dew Point Humidity Wind Precip. Elev Updated Type